createdAt,value
2022-11-09T00:00:13.356Z,99.99
2022-11-09T00:01:13.057Z,99.99
2022-11-09T00:02:13.298Z,99.99
2022-11-09T00:03:13.287Z,99.99
2022-11-09T00:04:13.307Z,99.99
2022-11-09T00:05:13.263Z,99.99
2022-11-09T00:06:12.992Z,99.99
2022-11-09T00:07:13.381Z,99.99
2022-11-09T00:08:13.228Z,99.99
2022-11-09T00:09:13.208Z,99.99
2022-11-09T00:10:13.261Z,99.99
2022-11-09T00:11:12.931Z,99.99
2022-11-09T00:12:12.924Z,99.99
2022-11-09T00:13:12.903Z,99.99
2022-11-09T00:14:12.892Z,99.99
2022-11-09T00:15:13.133Z,99.99
2022-11-09T00:16:12.890Z,99.99
2022-11-09T00:17:13.111Z,99.99
2022-11-09T00:18:13.097Z,99.99
2022-11-09T00:19:13.080Z,99.99
2022-11-09T00:20:13.101Z,99.99
2022-11-09T00:21:12.804Z,99.99
2022-11-09T00:22:13.037Z,99.99
2022-11-09T00:23:13.033Z,99.99
2022-11-09T00:24:13.020Z,99.99
2022-11-09T00:25:12.752Z,99.99
2022-11-09T00:26:12.735Z,99.99
2022-11-09T00:27:18.927Z,99.99
2022-11-09T00:28:12.969Z,99.99
2022-11-09T00:29:12.705Z,99.99
2022-11-09T00:30:12.937Z,99.99
2022-11-09T00:31:12.927Z,99.99
2022-11-09T00:32:12.938Z,99.99
2022-11-09T00:33:12.908Z,99.99
2022-11-09T00:34:12.630Z,99.99
2022-11-09T00:35:12.880Z,99.99
2022-11-09T00:36:12.888Z,99.99
2022-11-09T00:37:12.621Z,99.99
2022-11-09T00:38:12.656Z,99.99
2022-11-09T00:39:12.583Z,99.99
2022-11-09T00:40:12.812Z,99.99
2022-11-09T00:41:12.550Z,99.99
2022-11-09T00:42:12.789Z,99.99
2022-11-09T00:43:12.771Z,99.99
2022-11-09T00:44:12.959Z,99.99
2022-11-09T00:45:12.759Z,99.99
2022-11-09T00:46:13.162Z,99.99
2022-11-09T00:47:12.476Z,99.99
2022-11-09T00:48:12.478Z,99.99
2022-11-09T00:49:12.441Z,99.99
2022-11-09T00:50:12.680Z,99.99
2022-11-09T00:51:12.649Z,99.99
2022-11-09T00:52:12.907Z,99.99
2022-11-09T00:53:12.618Z,99.99
2022-11-09T00:54:12.859Z,99.99
2022-11-09T00:55:12.847Z,99.99
2022-11-09T00:56:12.829Z,99.99
2022-11-09T00:57:12.576Z,99.99
2022-11-09T00:58:12.807Z,99.99
2022-11-09T00:59:12.542Z,99.99
2022-11-09T01:00:12.778Z,99.99
2022-11-09T01:01:13.042Z,99.99
2022-11-09T01:02:12.501Z,99.99
2022-11-09T01:03:12.758Z,99.99
2022-11-09T01:04:12.752Z,99.99
2022-11-09T01:05:12.723Z,99.99
2022-11-09T01:06:12.705Z,99.99
2022-11-09T01:07:12.878Z,99.99
2022-11-09T01:08:12.703Z,99.99
2022-11-09T01:09:12.411Z,99.99
2022-11-09T01:10:12.654Z,99.99
2022-11-09T01:11:12.394Z,99.99
2022-11-09T01:12:12.375Z,99.99
2022-11-09T01:13:12.611Z,99.99
2022-11-09T01:14:12.347Z,99.99
2022-11-09T01:15:12.346Z,99.99
2022-11-09T01:16:12.325Z,99.99
2022-11-09T01:17:12.566Z,99.99
2022-11-09T01:18:12.304Z,99.99
2022-11-09T01:19:12.534Z,99.99
2022-11-09T01:20:12.557Z,99.99
2022-11-09T01:21:12.529Z,99.99
2022-11-09T01:22:12.509Z,99.99
2022-11-09T01:23:12.291Z,99.99
2022-11-09T01:24:12.507Z,99.99
2022-11-09T01:25:12.467Z,99.99
2022-11-09T01:26:12.480Z,99.99
2022-11-09T01:27:12.206Z,99.99
2022-11-09T01:28:12.437Z,99.99
2022-11-09T01:29:12.425Z,99.99
2022-11-09T01:30:12.397Z,99.99
2022-11-09T01:31:12.395Z,99.99
2022-11-09T01:32:12.377Z,99.99
2022-11-09T01:33:12.108Z,99.99
2022-11-09T01:34:12.091Z,99.99
2022-11-09T01:35:12.329Z,99.99
2022-11-09T01:36:12.096Z,99.99
2022-11-09T01:37:12.307Z,99.99
2022-11-09T01:38:12.041Z,99.99
2022-11-09T01:39:12.283Z,99.99
2022-11-09T01:40:12.295Z,99.99
2022-11-09T01:41:11.999Z,99.99
2022-11-09T01:42:11.999Z,99.99
2022-11-09T01:43:12.227Z,99.99
2022-11-09T01:44:12.275Z,99.99
2022-11-09T01:45:11.949Z,99.99
2022-11-09T01:46:12.214Z,99.99
2022-11-09T01:47:11.926Z,99.99
2022-11-09T01:48:11.917Z,99.99
2022-11-09T01:49:12.152Z,99.99
2022-11-09T01:50:12.141Z,99.99
2022-11-09T01:51:12.131Z,99.99
2022-11-09T01:52:12.143Z,99.99
2022-11-09T01:53:12.098Z,99.99
2022-11-09T01:54:11.839Z,99.99
2022-11-09T01:55:12.077Z,99.99
2022-11-09T01:56:12.103Z,99.99
2022-11-09T01:57:12.052Z,99.99
2022-11-09T01:58:12.040Z,99.99
2022-11-09T01:59:12.020Z,99.99
2022-11-09T02:00:11.782Z,99.99
2022-11-09T02:01:11.885Z,99.99
2022-11-09T02:02:11.987Z,99.99
2022-11-09T02:03:11.719Z,99.99
2022-11-09T02:04:11.961Z,99.99
2022-11-09T02:05:11.954Z,99.99
2022-11-09T02:06:11.688Z,99.99
2022-11-09T02:07:11.845Z,99.99
2022-11-09T02:08:11.931Z,99.99
2022-11-09T02:09:11.641Z,99.99
2022-11-09T02:10:11.628Z,99.99
2022-11-09T02:11:11.620Z,99.99
2022-11-09T02:12:12.212Z,99.99
2022-11-09T02:13:11.854Z,99.99
2022-11-09T02:14:11.828Z,99.99
2022-11-09T02:15:11.568Z,99.99
2022-11-09T02:16:11.809Z,99.99
2022-11-09T02:17:11.538Z,99.99
2022-11-09T02:18:11.858Z,99.99
2022-11-09T02:19:11.767Z,99.99
2022-11-09T02:20:11.756Z,99.99
2022-11-09T02:21:11.745Z,99.99
2022-11-09T02:22:11.475Z,99.99
2022-11-09T02:23:11.718Z,99.99
2022-11-09T02:24:11.726Z,99.99
2022-11-09T02:25:11.695Z,99.99
2022-11-09T02:26:11.421Z,99.99
2022-11-09T02:27:12.240Z,99.99
2022-11-09T02:28:11.721Z,99.99
2022-11-09T02:29:11.646Z,99.99
2022-11-09T02:30:11.622Z,99.99
2022-11-09T02:31:11.612Z,99.99
2022-11-09T02:32:11.347Z,99.99
2022-11-09T02:33:11.588Z,99.99
2022-11-09T02:34:11.572Z,99.99
2022-11-09T02:35:12.077Z,99.99
2022-11-09T02:36:11.295Z,99.99
2022-11-09T02:37:11.537Z,99.99
2022-11-09T02:38:11.519Z,99.99
2022-11-09T02:39:11.261Z,99.99
2022-11-09T02:40:11.270Z,99.99
2022-11-09T02:41:11.483Z,99.99
2022-11-09T02:42:15.744Z,99.99
2022-11-09T02:43:11.201Z,99.99
2022-11-09T02:44:11.471Z,99.99
2022-11-09T02:45:11.430Z,99.99
2022-11-09T02:46:11.417Z,99.99
2022-11-09T02:47:11.403Z,99.99
2022-11-09T02:48:11.138Z,99.99
2022-11-09T02:49:11.131Z,99.99
2022-11-09T02:50:11.112Z,99.99
2022-11-09T02:51:11.353Z,99.99
2022-11-09T02:52:11.340Z,99.99
2022-11-09T02:53:11.076Z,99.99
2022-11-09T02:54:11.304Z,99.99
2022-11-09T02:55:11.047Z,99.99
2022-11-09T02:56:11.053Z,99.99
2022-11-09T02:57:11.277Z,99.99
2022-11-09T02:58:11.016Z,99.99
2022-11-09T02:59:11.244Z,99.99
2022-11-09T03:00:11.262Z,99.99
2022-11-09T03:01:11.153Z,99.99
2022-11-09T03:02:11.212Z,99.99
2022-11-09T03:03:11.190Z,99.99
2022-11-09T03:04:10.927Z,99.99
2022-11-09T03:05:10.924Z,99.99
2022-11-09T03:06:11.461Z,99.99
2022-11-09T03:07:11.757Z,99.99
2022-11-09T03:08:11.690Z,99.99
2022-11-09T03:09:11.673Z,99.99
2022-11-09T03:10:11.665Z,99.99
2022-11-09T03:11:11.390Z,99.99
2022-11-09T03:12:11.665Z,99.99
2022-11-09T03:13:11.616Z,99.99
2022-11-09T03:14:11.609Z,99.99
2022-11-09T03:15:11.608Z,99.99
2022-11-09T03:16:11.611Z,99.99
2022-11-09T03:17:11.563Z,99.99
2022-11-09T03:18:11.554Z,99.99
2022-11-09T03:19:11.289Z,99.99
2022-11-09T03:20:11.722Z,99.99
2022-11-09T03:21:11.513Z,99.99
2022-11-09T03:22:11.249Z,99.99
2022-11-09T03:23:11.235Z,99.99
2022-11-09T03:24:11.219Z,99.99
2022-11-09T03:25:11.210Z,99.99
2022-11-09T03:26:11.195Z,99.99
2022-11-09T03:27:11.434Z,99.99
2022-11-09T03:28:11.444Z,99.99
2022-11-09T03:29:11.406Z,99.99
2022-11-09T03:30:11.148Z,99.99
2022-11-09T03:31:11.379Z,99.99
2022-11-09T03:32:11.398Z,99.99
2022-11-09T03:49:57.396Z,99.99
2022-11-09T03:50:57.071Z,99.99
2022-11-09T03:51:57.309Z,99.99
2022-11-09T03:52:57.292Z,99.99
2022-11-09T03:53:57.029Z,99.99
2022-11-09T03:54:57.262Z,99.99
2022-11-09T03:55:56.991Z,99.99
2022-11-09T03:56:57.227Z,99.99
2022-11-09T03:57:57.219Z,99.99
2022-11-09T03:58:57.259Z,99.99
2022-11-09T03:59:56.933Z,99.99
2022-11-09T04:00:57.173Z,99.99
2022-11-09T04:01:57.007Z,99.99
2022-11-09T04:02:57.150Z,99.99
2022-11-09T04:03:57.128Z,99.99
2022-11-09T04:04:56.859Z,99.99
2022-11-09T04:05:57.152Z,99.99
2022-11-09T04:06:57.247Z,99.99
2022-11-09T04:07:57.073Z,99.99
2022-11-09T04:08:57.067Z,99.99
2022-11-09T04:09:56.787Z,99.99
2022-11-09T04:10:57.028Z,99.99
2022-11-09T04:11:57.021Z,99.99
2022-11-09T04:12:57.010Z,99.99
2022-11-09T04:13:57.002Z,99.99
2022-11-09T04:14:56.722Z,99.99
2022-11-09T04:15:56.716Z,99.99
2022-11-09T04:16:56.948Z,99.99
2022-11-09T04:17:56.943Z,99.99
2022-11-09T04:18:56.926Z,99.99
2022-11-09T04:19:56.910Z,99.99
2022-11-09T04:20:56.893Z,99.99
2022-11-09T04:21:56.931Z,99.99
2022-11-09T04:22:56.614Z,99.99
2022-11-09T04:23:56.858Z,99.99
2022-11-09T04:24:56.863Z,99.99
2022-11-09T04:25:56.578Z,99.99
2022-11-09T04:26:56.817Z,99.99
2022-11-09T04:27:56.573Z,99.99
2022-11-09T04:28:56.783Z,99.99
2022-11-09T04:29:56.531Z,99.99
2022-11-09T04:30:56.763Z,99.99
2022-11-09T04:31:56.492Z,99.99
2022-11-09T04:32:56.483Z,99.99
2022-11-09T04:33:56.730Z,99.99
2022-11-09T04:34:56.706Z,99.99
2022-11-09T04:35:56.445Z,99.99
2022-11-09T04:36:56.429Z,98.88
2022-11-09T04:37:56.722Z,98.69
2022-11-09T04:38:56.660Z,98.13
2022-11-09T04:39:56.394Z,98.32
2022-11-09T04:40:56.631Z,97.55
2022-11-09T04:41:56.622Z,97.46
2022-11-09T04:42:56.607Z,97.17
2022-11-09T04:43:56.344Z,97.27
2022-11-09T04:44:56.578Z,97.46
2022-11-09T04:45:56.569Z,96.51
2022-11-09T04:46:56.558Z,96.7
2022-11-09T04:47:56.284Z,96.12
2022-11-09T04:48:56.529Z,95.84
2022-11-09T04:49:56.515Z,95.84
2022-11-09T04:50:56.506Z,95.84
2022-11-09T04:51:56.243Z,95.75
2022-11-09T04:52:56.475Z,95.94
2022-11-09T04:53:56.517Z,95.84
2022-11-09T04:54:56.194Z,95.94
2022-11-09T04:55:56.183Z,96.41
2022-11-09T04:56:56.171Z,96.98
2022-11-09T04:57:56.411Z,96.89
2022-11-09T04:58:56.404Z,97.27
2022-11-09T04:59:56.386Z,97.36
2022-11-09T05:00:56.379Z,97.93
2022-11-09T05:01:56.103Z,98.88
2022-11-09T05:02:56.348Z,98.88
2022-11-09T05:03:56.510Z,98.69
2022-11-09T05:04:56.327Z,98.6
2022-11-09T05:05:56.055Z,98.69
2022-11-09T05:06:56.421Z,99.27
2022-11-09T05:07:56.284Z,98.98
2022-11-09T05:08:56.271Z,99.17
2022-11-09T05:09:56.486Z,99.55
2022-11-09T05:10:55.993Z,99.55
2022-11-09T05:11:56.228Z,99.74
2022-11-09T05:12:55.964Z,99.55
2022-11-09T05:13:56.205Z,99.84
2022-11-09T05:14:56.196Z,99.99
2022-11-09T05:15:56.178Z,99.99
2022-11-09T05:16:56.168Z,99.99
2022-11-09T05:17:55.902Z,99.99
2022-11-09T05:18:55.891Z,99.99
2022-11-09T05:19:58.525Z,99.99
2022-11-09T05:20:56.116Z,99.99
2022-11-09T05:21:55.849Z,99.99
2022-11-09T05:22:56.099Z,99.99
2022-11-09T05:23:56.092Z,99.99
2022-11-09T05:24:56.063Z,99.99
2022-11-09T05:25:56.097Z,99.99
2022-11-09T05:26:55.783Z,99.99
2022-11-09T05:27:56.029Z,99.99
2022-11-09T05:28:56.013Z,99.99
2022-11-09T05:29:55.997Z,99.99
2022-11-09T05:30:55.992Z,99.99
2022-11-09T05:31:55.727Z,99.99
2022-11-09T05:32:55.963Z,99.99
2022-11-09T05:33:55.699Z,99.99
2022-11-09T05:34:55.931Z,99.99
2022-11-09T05:35:55.672Z,99.99
2022-11-09T05:36:59.388Z,99.99
2022-11-09T05:37:55.644Z,99.99
2022-11-09T05:38:55.674Z,99.99
2022-11-09T05:39:55.622Z,99.99
2022-11-09T05:40:55.858Z,99.99
2022-11-09T05:41:55.900Z,99.99
2022-11-09T05:42:55.837Z,99.99
2022-11-09T05:43:55.570Z,99.99
2022-11-09T05:44:55.552Z,99.99
2022-11-09T05:45:55.795Z,99.99
2022-11-09T05:46:55.776Z,99.99
2022-11-09T05:47:55.769Z,99.99
2022-11-09T05:48:55.500Z,99.99
2022-11-09T05:49:55.742Z,99.99
2022-11-09T05:50:55.722Z,99.99
2022-11-09T05:51:55.487Z,99.99
2022-11-09T05:52:55.703Z,99.99
2022-11-09T05:53:55.690Z,99.99
2022-11-09T05:54:55.426Z,99.99
2022-11-09T05:55:55.666Z,99.99
2022-11-09T05:56:55.397Z,99.99
2022-11-09T05:57:55.687Z,99.99
2022-11-09T05:58:55.365Z,99.99
2022-11-09T05:59:55.358Z,99.99
2022-11-09T06:00:55.594Z,99.99
2022-11-09T06:01:55.758Z,99.99
2022-11-09T06:02:55.319Z,99.99
2022-11-09T06:03:55.302Z,99.99
2022-11-09T06:04:55.289Z,99.99
2022-11-09T06:05:55.535Z,99.99
2022-11-09T06:06:55.718Z,99.99
2022-11-09T06:07:55.516Z,99.99
2022-11-09T06:08:55.234Z,99.99
2022-11-09T06:09:55.483Z,99.99
2022-11-09T06:10:55.215Z,99.99
2022-11-09T06:11:55.470Z,99.99
2022-11-09T06:12:55.446Z,99.99
2022-11-09T06:13:55.520Z,99.99
2022-11-09T06:14:55.164Z,99.99
2022-11-09T06:15:55.166Z,99.99
2022-11-09T06:16:55.401Z,99.99
2022-11-09T06:17:55.397Z,99.99
2022-11-09T06:18:55.395Z,99.99
2022-11-09T06:19:55.409Z,99.99
2022-11-09T06:20:55.352Z,99.99
2022-11-09T06:21:55.077Z,99.99
2022-11-09T06:22:58.728Z,99.99
2022-11-09T06:23:55.312Z,99.99
2022-11-09T06:24:55.296Z,99.99
2022-11-09T06:25:55.357Z,99.99
2022-11-09T06:26:55.272Z,99.99
2022-11-09T06:27:55.249Z,99.99
2022-11-09T06:28:55.252Z,99.99
2022-11-09T06:29:55.279Z,99.99
2022-11-09T06:30:54.962Z,99.99
2022-11-09T06:31:54.942Z,99.99
2022-11-09T06:32:54.931Z,99.99
2022-11-09T06:33:55.176Z,99.99
2022-11-09T06:34:54.906Z,99.99
2022-11-09T06:35:58.709Z,99.99
2022-11-09T06:36:55.138Z,99.99
2022-11-09T06:37:54.871Z,99.99
2022-11-09T06:38:55.116Z,99.99
2022-11-09T06:39:54.835Z,99.99
2022-11-09T06:40:55.083Z,99.99
2022-11-09T06:41:55.046Z,99.99
2022-11-09T06:42:54.995Z,99.99
2022-11-09T06:43:54.782Z,99.99
2022-11-09T06:44:55.027Z,99.99
2022-11-09T06:45:55.226Z,99.99
2022-11-09T06:46:55.005Z,99.99
2022-11-09T06:47:54.986Z,99.99
2022-11-09T06:48:57.146Z,99.99
2022-11-09T06:49:54.728Z,99.99
2022-11-09T06:50:54.980Z,99.99
2022-11-09T06:51:54.935Z,99.99
2022-11-09T06:52:54.925Z,99.99
2022-11-09T06:53:54.908Z,99.99
2022-11-09T06:54:54.640Z,99.99
2022-11-09T06:55:54.630Z,99.99
2022-11-09T06:56:54.644Z,99.99
2022-11-09T06:57:54.603Z,99.99
2022-11-09T06:58:54.587Z,99.99
2022-11-09T06:59:54.827Z,99.99
2022-11-09T07:00:55.074Z,99.99
2022-11-09T07:02:01.370Z,99.99
2022-11-09T07:02:54.794Z,99.99
2022-11-09T07:03:54.773Z,99.99
2022-11-09T07:04:54.777Z,99.99
2022-11-09T07:05:54.500Z,99.99
2022-11-09T07:06:54.898Z,99.99
2022-11-09T07:07:54.468Z,99.99
2022-11-09T07:08:54.460Z,99.99
2022-11-09T07:09:54.700Z,99.99
2022-11-09T07:10:54.699Z,99.99
2022-11-09T07:11:54.675Z,99.99
2022-11-09T07:12:54.669Z,99.99
2022-11-09T07:13:59.642Z,99.99
2022-11-09T07:14:54.637Z,99.99
2022-11-09T07:15:54.625Z,99.99
2022-11-09T07:16:54.608Z,99.99
2022-11-09T07:17:54.647Z,99.99
2022-11-09T07:18:54.334Z,99.99
2022-11-09T07:19:54.586Z,99.99
2022-11-09T07:20:54.562Z,99.99
2022-11-09T07:21:54.547Z,99.99
2022-11-09T07:22:54.284Z,99.99
2022-11-09T07:23:54.521Z,99.99
2022-11-09T07:24:54.258Z,99.99
2022-11-09T07:25:54.494Z,99.99
2022-11-09T07:26:54.479Z,99.99
2022-11-09T07:27:54.475Z,99.99
2022-11-09T07:28:54.455Z,99.99
2022-11-09T07:29:54.192Z,99.99
2022-11-09T07:30:54.181Z,99.99
2022-11-09T07:31:54.422Z,99.99
2022-11-09T07:33:12.352Z,99.99
2022-11-09T07:33:54.432Z,99.99
2022-11-09T07:34:54.379Z,99.99
2022-11-09T07:35:54.112Z,99.99
2022-11-09T07:36:54.096Z,99.99
2022-11-09T07:37:54.344Z,99.99
2022-11-09T07:38:54.069Z,99.99
2022-11-09T07:39:54.056Z,99.99
2022-11-09T07:40:54.843Z,99.99
2022-11-09T07:41:54.576Z,99.99
2022-11-09T07:42:54.817Z,99.99
2022-11-09T07:43:54.811Z,99.99
2022-11-09T07:44:54.535Z,99.99
2022-11-09T07:45:54.783Z,99.99
2022-11-09T07:46:54.762Z,99.99
2022-11-09T07:47:54.758Z,99.99
2022-11-09T07:48:54.773Z,99.99
2022-11-09T07:49:54.752Z,99.99
2022-11-09T07:50:54.709Z,99.99
2022-11-09T07:51:54.705Z,99.99
2022-11-09T07:52:54.434Z,99.99
2022-11-09T07:53:54.420Z,99.99
2022-11-09T07:54:54.738Z,99.99
2022-11-09T07:55:54.662Z,99.99
2022-11-09T07:56:54.639Z,99.99
2022-11-09T07:57:54.623Z,99.99
2022-11-09T07:58:54.616Z,99.99
2022-11-09T07:59:54.344Z,99.99
2022-11-09T08:00:54.327Z,99.99
2022-11-09T08:01:54.455Z,99.99
2022-11-09T08:02:54.562Z,99.99
2022-11-09T08:03:54.541Z,99.99
2022-11-09T08:04:54.561Z,99.99
2022-11-09T08:05:54.541Z,99.99
2022-11-09T08:06:54.369Z,99.99
2022-11-09T08:07:54.236Z,99.99
2022-11-09T08:08:54.222Z,99.99
2022-11-09T08:09:54.468Z,99.99
2022-11-09T08:10:54.452Z,99.99
2022-11-09T08:11:54.433Z,99.99
2022-11-09T08:12:54.453Z,99.99
2022-11-09T08:13:54.156Z,99.99
2022-11-09T08:14:54.149Z,99.99
2022-11-09T08:15:54.384Z,99.99
2022-11-09T08:16:54.380Z,99.99
2022-11-09T08:17:54.363Z,99.99
2022-11-09T08:18:54.356Z,99.99
2022-11-09T08:19:54.332Z,99.99
2022-11-09T08:20:54.092Z,99.99
2022-11-09T08:21:54.346Z,99.99
2022-11-09T08:22:55.132Z,99.99
2022-11-09T08:23:54.276Z,99.99
2022-11-09T08:24:54.271Z,99.99
2022-11-09T08:25:54.255Z,99.99
2022-11-09T08:26:53.991Z,99.99
2022-11-09T08:27:53.979Z,99.99
2022-11-09T08:28:54.218Z,99.99
2022-11-09T08:29:54.213Z,99.99
2022-11-09T08:30:54.191Z,99.99
2022-11-09T08:31:53.922Z,99.99
2022-11-09T08:32:54.164Z,99.99
2022-11-09T08:33:54.154Z,99.99
2022-11-09T08:34:54.237Z,99.99
2022-11-09T08:35:55.845Z,99.99
2022-11-09T08:36:53.884Z,99.99
2022-11-09T08:37:54.194Z,99.99
2022-11-09T08:38:54.097Z,99.99
2022-11-09T08:39:53.814Z,99.99
2022-11-09T08:40:54.103Z,99.99
2022-11-09T08:41:54.042Z,99.99
2022-11-09T08:42:54.031Z,99.99
2022-11-09T08:43:54.013Z,99.99
2022-11-09T08:44:54.005Z,99.99
2022-11-09T08:45:53.813Z,99.99
2022-11-09T08:46:53.727Z,99.99
2022-11-09T08:47:53.710Z,99.99
2022-11-09T08:48:53.706Z,99.99
2022-11-09T08:49:53.707Z,99.99
2022-11-09T08:50:53.927Z,99.99
2022-11-09T08:51:53.916Z,99.99
2022-11-09T08:52:53.923Z,99.99
2022-11-09T08:53:53.922Z,99.99
2022-11-09T08:54:53.624Z,99.99
2022-11-09T08:55:53.663Z,99.99
2022-11-09T08:56:53.846Z,99.99
2022-11-09T08:57:53.838Z,99.99
2022-11-09T08:58:53.570Z,99.99
2022-11-09T08:59:53.807Z,99.99
2022-11-09T09:00:53.802Z,99.99
2022-11-09T09:01:53.921Z,99.99
2022-11-09T09:02:53.520Z,99.99
2022-11-09T09:03:53.760Z,99.99
2022-11-09T09:04:53.744Z,99.99
2022-11-09T09:05:53.812Z,99.99
2022-11-09T09:06:53.826Z,99.99
2022-11-09T09:07:53.737Z,99.99
2022-11-09T09:08:53.714Z,99.99
2022-11-09T09:09:53.720Z,99.99
2022-11-09T09:10:53.410Z,99.99
2022-11-09T09:11:53.663Z,99.99
2022-11-09T09:12:53.388Z,99.99
2022-11-09T09:13:53.634Z,99.99
2022-11-09T09:14:53.616Z,99.99
2022-11-09T09:15:53.612Z,99.99
2022-11-09T09:16:53.595Z,99.99
2022-11-09T09:17:53.327Z,99.99
2022-11-09T09:18:53.575Z,99.99
2022-11-09T09:19:53.310Z,99.99
2022-11-09T09:20:53.539Z,99.99
2022-11-09T09:21:53.301Z,99.99
2022-11-09T09:22:53.267Z,99.99
2022-11-09T09:23:53.505Z,99.99
2022-11-09T09:24:53.517Z,99.99
2022-11-09T09:25:58.915Z,99.99
2022-11-09T09:26:53.443Z,99.99
2022-11-09T09:27:53.423Z,99.99
2022-11-09T09:28:53.657Z,99.99
2022-11-09T09:29:53.650Z,99.99
2022-11-09T09:30:53.643Z,99.99
2022-11-09T09:31:53.632Z,99.99
2022-11-09T09:32:53.359Z,99.99
2022-11-09T09:33:53.625Z,99.99
2022-11-09T09:34:53.591Z,99.99
2022-11-09T09:35:53.666Z,99.99
2022-11-09T09:36:53.569Z,99.99
2022-11-09T09:37:53.556Z,99.99
2022-11-09T09:38:53.294Z,99.99
2022-11-09T09:39:53.537Z,99.99
2022-11-09T09:40:53.571Z,99.99
2022-11-09T09:41:53.542Z,99.99
2022-11-09T09:42:53.494Z,99.99
2022-11-09T09:43:53.232Z,99.99
2022-11-09T09:44:53.470Z,99.99
2022-11-09T09:45:53.461Z,99.99
2022-11-09T09:46:53.200Z,99.99
2022-11-09T09:47:54.265Z,99.99
2022-11-09T09:48:54.251Z,99.99
2022-11-09T09:49:54.072Z,99.99
2022-11-09T09:50:54.274Z,99.99
2022-11-09T09:51:54.202Z,99.99
2022-11-09T09:53:24.794Z,99.99
2022-11-09T09:53:54.184Z,99.99
2022-11-09T09:54:54.604Z,99.99
2022-11-09T09:55:54.158Z,99.99
2022-11-09T09:56:54.190Z,99.99
2022-11-09T09:57:54.160Z,99.99
2022-11-09T09:58:54.130Z,99.99
2022-11-09T09:59:54.120Z,99.99
2022-11-09T10:00:54.106Z,99.99
2022-11-09T10:01:54.103Z,99.99
2022-11-09T10:02:54.092Z,99.99
2022-11-09T10:03:54.069Z,99.99
2022-11-09T10:04:54.204Z,99.99
2022-11-09T10:05:54.057Z,99.99
2022-11-09T10:06:54.132Z,99.99
2022-11-09T10:07:54.028Z,99.99
2022-11-09T10:08:54.025Z,99.99
2022-11-09T10:09:53.751Z,99.99
2022-11-09T10:10:54.000Z,99.99
2022-11-09T10:11:57.321Z,99.99
2022-11-09T10:12:54.007Z,99.99
2022-11-09T10:13:53.987Z,99.99
2022-11-09T10:14:53.964Z,99.99
2022-11-09T10:15:53.957Z,99.99
2022-11-09T10:16:53.931Z,99.99
2022-11-09T10:17:53.921Z,99.99
2022-11-09T10:18:53.915Z,99.99
2022-11-09T10:19:53.901Z,99.99
2022-11-09T10:20:55.473Z,99.99
2022-11-09T10:21:53.877Z,99.99
2022-11-09T10:22:53.873Z,99.99
2022-11-09T10:23:53.863Z,99.99
2022-11-09T10:25:37.950Z,99.99
2022-11-09T10:26:18.653Z,99.99
2022-11-09T10:27:18.621Z,99.99
2022-11-09T10:28:19.252Z,99.99
2022-11-09T10:29:19.777Z,99.99
2022-11-09T10:30:18.839Z,99.99
2022-11-09T10:31:18.831Z,99.99
2022-11-09T10:32:18.821Z,99.99
2022-11-09T10:33:18.815Z,99.99
2022-11-09T10:34:18.794Z,99.99
2022-11-09T10:35:18.785Z,99.99
2022-11-09T10:36:18.775Z,99.99
2022-11-09T10:37:18.514Z,99.99
2022-11-09T10:38:19.039Z,99.99
2022-11-09T10:39:18.899Z,99.99
2022-11-09T10:40:18.893Z,99.99
2022-11-09T10:41:19.239Z,99.99
2022-11-09T10:42:19.485Z,99.99
2022-11-09T10:43:19.472Z,99.99
2022-11-09T10:44:20.410Z,99.99
2022-11-09T10:45:19.471Z,99.99
2022-11-09T10:46:19.443Z,99.99
2022-11-09T10:47:19.433Z,99.99
2022-11-09T10:48:19.690Z,99.99
2022-11-09T10:49:19.407Z,99.99
2022-11-09T10:50:19.147Z,99.99
2022-11-09T10:51:19.397Z,99.99
2022-11-09T10:52:19.401Z,99.99
2022-11-09T10:53:19.118Z,99.99
2022-11-09T10:54:19.360Z,99.99
2022-11-09T10:55:19.346Z,99.99
2022-11-09T10:56:23.641Z,99.99
2022-11-09T10:57:19.073Z,99.99
2022-11-09T10:58:19.506Z,99.99
2022-11-09T10:59:19.305Z,99.99
2022-11-09T11:00:19.358Z,99.99
2022-11-09T11:01:19.434Z,99.99
2022-11-09T11:02:19.153Z,99.99
2022-11-09T11:03:19.393Z,99.99
2022-11-09T11:04:19.011Z,99.99
2022-11-09T11:05:19.270Z,99.99
2022-11-09T11:06:18.987Z,99.99
2022-11-09T11:07:23.440Z,99.99
2022-11-09T11:08:19.233Z,99.99
2022-11-09T11:09:19.216Z,99.99
2022-11-09T11:10:19.229Z,99.99
2022-11-09T11:11:36.827Z,99.99
2022-11-09T11:12:19.191Z,99.99
2022-11-09T11:13:19.485Z,99.99
2022-11-09T11:14:25.187Z,99.99
2022-11-09T11:15:19.167Z,99.99
2022-11-09T11:16:19.174Z,99.99
2022-11-09T11:17:19.163Z,99.99
2022-11-09T11:18:19.132Z,99.99
2022-11-09T11:19:19.140Z,99.99
2022-11-09T11:20:19.114Z,99.99
2022-11-09T11:21:21.780Z,99.99
2022-11-09T11:22:19.076Z,99.99
2022-11-09T11:23:19.438Z,99.99
2022-11-09T11:24:19.077Z,99.99
2022-11-09T11:25:19.061Z,99.99
2022-11-09T11:26:19.054Z,99.99
2022-11-09T11:27:19.050Z,99.99
2022-11-09T11:28:18.786Z,99.99
2022-11-09T11:29:19.026Z,99.99
2022-11-09T11:30:18.781Z,99.99
2022-11-09T11:31:19.012Z,99.99
2022-11-09T11:32:18.773Z,99.99
2022-11-09T11:33:19.392Z,99.99
2022-11-09T11:35:03.677Z,99.99
2022-11-09T11:35:18.974Z,99.99
2022-11-09T11:36:18.970Z,99.99
2022-11-09T11:37:18.959Z,99.99
2022-11-09T11:38:19.003Z,99.99
2022-11-09T11:39:18.940Z,99.99
2022-11-09T11:40:18.680Z,99.99
2022-11-09T11:41:18.671Z,99.99
2022-11-09T11:42:18.654Z,99.99
2022-11-09T11:43:19.107Z,99.99
2022-11-09T11:44:18.697Z,99.99
2022-11-09T11:45:42.600Z,99.99
2022-11-09T11:46:18.864Z,99.99
2022-11-09T11:47:18.861Z,99.99
2022-11-09T11:48:19.222Z,99.99
2022-11-09T11:49:18.877Z,99.99
2022-11-09T11:50:18.879Z,99.99
2022-11-09T11:51:18.562Z,99.99
2022-11-09T11:52:18.809Z,99.99
2022-11-09T11:53:19.164Z,99.99
2022-11-09T11:54:18.536Z,99.99
2022-11-09T11:55:18.779Z,99.99
2022-11-09T11:56:18.763Z,99.99
2022-11-09T11:57:18.759Z,99.99
2022-11-09T11:58:18.493Z,99.99
2022-11-09T11:59:18.489Z,99.99
2022-11-09T12:00:18.527Z,99.99
2022-11-09T12:01:18.469Z,99.99
2022-11-09T12:02:18.835Z,99.99
2022-11-09T12:03:18.899Z,99.99
2022-11-09T12:04:19.564Z,99.99
2022-11-09T12:05:19.558Z,99.99
2022-11-09T12:06:19.516Z,99.99
2022-11-09T12:07:19.717Z,99.99
2022-11-09T12:08:19.637Z,99.99
2022-11-09T12:09:19.234Z,99.99
2022-11-09T12:10:19.347Z,99.99
2022-11-09T12:11:19.467Z,99.99
2022-11-09T12:12:19.456Z,99.99
2022-11-09T12:13:19.794Z,99.99
2022-11-09T12:14:19.182Z,99.99
2022-11-09T12:15:19.432Z,99.99
2022-11-09T12:16:19.417Z,99.99
2022-11-09T12:17:19.159Z,99.99
2022-11-09T12:18:19.407Z,99.99
2022-11-09T12:19:22.554Z,99.99
2022-11-09T12:20:19.150Z,99.99
2022-11-09T12:21:19.407Z,99.99
2022-11-09T12:22:19.115Z,99.99
2022-11-09T12:23:19.737Z,99.99
2022-11-09T12:24:19.100Z,99.99
2022-11-09T12:25:19.343Z,99.99
2022-11-09T12:26:25.283Z,99.99
2022-11-09T12:27:34.570Z,99.99
2022-11-09T12:28:19.316Z,99.99
2022-11-09T12:29:19.300Z,99.99
2022-11-09T12:30:19.312Z,99.99
2022-11-09T12:31:19.281Z,99.99
2022-11-09T12:32:19.026Z,99.99
2022-11-09T12:33:19.599Z,99.99
2022-11-09T12:34:19.379Z,99.99
2022-11-09T12:35:19.251Z,99.99
2022-11-09T12:36:19.470Z,99.99
2022-11-09T12:37:19.251Z,99.99
2022-11-09T12:38:19.526Z,99.99
2022-11-09T12:39:18.956Z,99.99
2022-11-09T12:40:19.200Z,99.99
2022-11-09T12:41:18.934Z,99.99
2022-11-09T12:42:19.179Z,99.99
2022-11-09T12:43:19.323Z,99.99
2022-11-09T12:44:19.877Z,99.99
2022-11-09T12:45:19.148Z,99.99
2022-11-09T12:46:19.151Z,99.99
2022-11-09T12:47:18.896Z,99.99
2022-11-09T12:48:19.126Z,99.99
2022-11-09T12:49:19.116Z,99.99
2022-11-09T12:50:19.111Z,99.99
2022-11-09T12:51:18.858Z,99.99
2022-11-09T12:52:19.115Z,99.99
2022-11-09T12:53:19.427Z,99.99
2022-11-09T12:54:19.075Z,99.99
2022-11-09T12:55:19.057Z,99.99
2022-11-09T12:56:19.055Z,99.99
2022-11-09T12:57:19.040Z,99.99
2022-11-09T12:58:19.319Z,99.99
2022-11-09T12:59:19.019Z,99.99
2022-11-09T13:00:19.010Z,99.99
2022-11-09T13:01:19.133Z,99.99
2022-11-09T13:02:18.999Z,99.99
2022-11-09T13:03:19.160Z,99.99
2022-11-09T13:04:18.977Z,99.99
2022-11-09T13:05:19.183Z,99.99
2022-11-09T13:06:18.966Z,99.99
2022-11-09T13:07:19.237Z,99.99
2022-11-09T13:08:18.963Z,99.99
2022-11-09T13:09:19.066Z,99.99